createdAt,value
2024-02-14T00:00:27.717Z,59.09
2024-02-14T00:02:54.548Z,59.48
2024-02-14T00:05:21.980Z,59.44
2024-02-14T00:07:48.825Z,59.73
2024-02-14T00:10:15.688Z,60.05
2024-02-14T00:12:42.620Z,60.21
2024-02-14T00:15:10.117Z,60.23
2024-02-14T00:17:37.126Z,59.79
2024-02-14T00:20:05.730Z,59.72
2024-02-14T00:22:32.930Z,59.54
2024-02-14T00:24:59.858Z,59.60
2024-02-14T00:27:27.965Z,59.84
2024-02-14T00:29:55.961Z,59.65
2024-02-14T00:32:23.689Z,60.07
2024-02-14T00:34:51.742Z,59.80
2024-02-14T00:37:21.217Z,59.59
2024-02-14T00:39:50.160Z,59.89
2024-02-14T00:42:17.690Z,59.85
2024-02-14T00:44:44.476Z,59.85
2024-02-14T00:47:11.488Z,59.60
2024-02-14T00:49:40.452Z,59.51
2024-02-14T00:52:07.907Z,59.71
2024-02-14T00:54:34.663Z,59.71
2024-02-14T00:57:01.585Z,59.94
2024-02-14T00:59:28.824Z,59.53
2024-02-14T01:01:55.600Z,59.61
2024-02-14T01:04:22.390Z,60.10
2024-02-14T01:06:50.955Z,61.20
2024-02-14T01:09:18.609Z,59.97
2024-02-14T01:11:46.222Z,59.48
2024-02-14T01:14:15.367Z,59.10
2024-02-14T01:16:46.783Z,59.34
2024-02-14T01:19:15.437Z,59.80
2024-02-14T01:21:42.888Z,60.25
2024-02-14T01:24:10.409Z,60.41
2024-02-14T01:26:37.404Z,59.80
2024-02-14T01:29:06.993Z,60.15
2024-02-14T01:31:37.157Z,60.16
2024-02-14T01:34:04.257Z,59.83
2024-02-14T01:36:31.661Z,59.43
2024-02-14T01:39:17.225Z,58.89
2024-02-14T01:41:49.802Z,59.15
2024-02-14T01:44:17.941Z,58.98
2024-02-14T01:46:45.877Z,59.11
2024-02-14T01:49:13.622Z,59.37
2024-02-14T01:51:45.137Z,59.48
2024-02-14T01:54:14.031Z,59.55
2024-02-14T01:56:42.178Z,59.06
2024-02-14T01:59:10.508Z,59.13
2024-02-14T02:01:37.315Z,60.01
2024-02-14T02:04:05.665Z,60.56
2024-02-14T02:06:33.403Z,60.20
2024-02-14T02:09:01.748Z,60.19
2024-02-14T02:11:28.834Z,60.98
2024-02-14T02:13:56.478Z,60.88
2024-02-14T02:16:23.313Z,60.49
2024-02-14T02:18:51.099Z,60.88
2024-02-14T02:21:21.142Z,60.90
2024-02-14T02:23:48.425Z,60.67
2024-02-14T02:26:15.954Z,61.16
2024-02-14T02:28:44.136Z,60.66
2024-02-14T02:31:11.503Z,60.83
2024-02-14T02:33:38.901Z,60.17
2024-02-14T02:36:07.945Z,60.16
2024-02-14T02:38:35.212Z,60.25
2024-02-14T02:41:02.316Z,60.41
2024-02-14T02:43:29.659Z,60.20
2024-02-14T02:45:58.364Z,59.87
2024-02-14T02:48:25.299Z,59.82
2024-02-14T02:50:53.112Z,59.81
2024-02-14T02:53:20.520Z,60.13
2024-02-14T02:55:47.270Z,60.42
2024-02-14T02:58:15.024Z,60.29
2024-02-14T03:00:41.934Z,60.21
2024-02-14T03:03:10.085Z,60.16
2024-02-14T03:05:37.351Z,60.25
2024-02-14T03:08:04.396Z,60.36
2024-02-14T03:10:31.878Z,60.57
2024-02-14T03:12:58.675Z,60.64
2024-02-14T03:15:27.211Z,60.83
2024-02-14T03:17:54.155Z,60.78
2024-02-14T03:20:21.532Z,61.00
2024-02-14T03:22:49.430Z,60.79
2024-02-14T03:25:21.227Z,61.45
2024-02-14T03:27:50.929Z,61.85
2024-02-14T03:30:19.162Z,61.96
2024-02-14T03:32:48.043Z,62.03
2024-02-14T03:35:15.131Z,62.01
2024-02-14T03:37:43.878Z,62.06
2024-02-14T03:40:11.544Z,61.96
2024-02-14T03:42:41.316Z,61.85
2024-02-14T03:45:09.571Z,62.02
2024-02-14T03:47:41.002Z,62.48
2024-02-14T03:50:09.568Z,62.88
2024-02-14T03:52:36.678Z,63.22
2024-02-14T03:55:04.361Z,63.33
2024-02-14T03:57:31.249Z,63.56
2024-02-14T04:00:05.018Z,63.85
2024-02-14T04:02:40.641Z,63.61
2024-02-14T04:05:09.130Z,64.01
2024-02-14T04:07:36.205Z,64.56
2024-02-14T04:10:03.050Z,64.68
2024-02-14T04:12:29.888Z,64.44
2024-02-14T04:14:56.711Z,64.84
2024-02-14T04:17:24.007Z,64.88
2024-02-14T04:19:51.293Z,65.23
2024-02-14T04:22:18.120Z,65.34
2024-02-14T04:24:44.951Z,65.58
2024-02-14T04:27:11.692Z,65.77
2024-02-14T04:29:38.446Z,65.79
2024-02-14T04:32:05.441Z,66.10
2024-02-14T04:34:32.970Z,66.21
2024-02-14T04:36:59.882Z,66.11
2024-02-14T04:39:26.623Z,65.65
2024-02-14T04:42:01.047Z,65.69
2024-02-14T04:44:30.535Z,65.95
2024-02-14T04:46:59.485Z,65.31
2024-02-14T04:49:27.392Z,65.66
2024-02-14T04:51:54.365Z,65.97
2024-02-14T04:54:21.158Z,66.62
2024-02-14T04:56:51.480Z,66.47
2024-02-14T04:59:20.619Z,66.72
2024-02-14T05:01:47.526Z,66.88
2024-02-14T05:04:14.382Z,66.52
2024-02-14T05:06:41.536Z,66.49
2024-02-14T05:09:08.434Z,66.03
2024-02-14T05:11:35.649Z,66.01
2024-02-14T05:14:03.362Z,65.79
2024-02-14T05:16:30.466Z,66.13
2024-02-14T05:18:57.337Z,65.89
2024-02-14T05:21:24.255Z,66.06
2024-02-14T05:23:51.834Z,65.74
2024-02-14T05:26:18.736Z,66.12
2024-02-14T05:28:45.664Z,66.13
2024-02-14T05:31:12.336Z,66.21
2024-02-14T05:33:39.129Z,66.37
2024-02-14T05:36:07.317Z,66.15
2024-02-14T05:38:35.517Z,66.38
2024-02-14T05:41:02.956Z,67.31
2024-02-14T05:43:29.880Z,66.61
2024-02-14T05:45:56.711Z,66.75
2024-02-14T05:48:23.815Z,66.13
2024-02-14T05:50:50.943Z,66.41
2024-02-14T05:53:17.795Z,66.35
2024-02-14T05:55:44.823Z,66.78
2024-02-14T05:58:11.951Z,66.66
2024-02-14T06:00:39.849Z,66.10
2024-02-14T06:03:08.189Z,66.11
2024-02-14T06:05:35.987Z,66.21
2024-02-14T06:08:04.578Z,65.78
2024-02-14T06:10:31.542Z,65.87
2024-02-14T06:12:58.370Z,65.73
2024-02-14T06:15:25.217Z,65.60
2024-02-14T06:17:52.520Z,65.58
2024-02-14T06:20:19.801Z,65.92
2024-02-14T06:22:53.631Z,65.68
2024-02-14T06:25:28.313Z,65.66
2024-02-14T06:27:57.971Z,66.44
2024-02-14T06:30:25.762Z,66.34
2024-02-14T06:32:54.094Z,66.49
2024-02-14T06:35:22.131Z,66.60
2024-02-14T06:37:55.937Z,66.85
2024-02-14T06:40:31.039Z,66.57
2024-02-14T06:42:59.877Z,66.49
2024-02-14T06:45:28.959Z,66.81
2024-02-14T06:47:56.456Z,66.43
2024-02-14T06:50:23.527Z,66.25
2024-02-14T06:52:50.271Z,66.61
2024-02-14T06:55:17.046Z,66.80
2024-02-14T06:57:43.785Z,67.06
2024-02-14T07:00:11.838Z,67.07
2024-02-14T07:02:38.941Z,67.51
2024-02-14T07:05:08.552Z,67.37
2024-02-14T07:07:35.328Z,67.20
2024-02-14T07:10:02.638Z,67.34
2024-02-14T07:12:31.717Z,67.68
2024-02-14T07:14:58.695Z,67.43
2024-02-14T07:17:25.684Z,67.27
2024-02-14T07:19:52.758Z,66.92
2024-02-14T07:22:22.472Z,66.77
2024-02-14T07:24:49.457Z,67.06
2024-02-14T07:27:17.961Z,67.10
2024-02-14T07:29:46.233Z,67.11
2024-02-14T07:32:13.093Z,67.17
2024-02-14T07:34:43.536Z,66.88
2024-02-14T07:37:10.379Z,66.91
2024-02-14T07:39:37.334Z,66.98
2024-02-14T07:42:04.679Z,67.37
2024-02-14T07:44:32.591Z,66.72
2024-02-14T07:47:02.532Z,66.54
2024-02-14T07:49:32.093Z,66.15
2024-02-14T07:51:59.239Z,66.38
2024-02-14T07:54:26.206Z,65.99
2024-02-14T07:56:53.312Z,65.90
2024-02-14T07:59:21.820Z,66.26
2024-02-14T08:01:49.233Z,66.44
2024-02-14T08:04:17.256Z,65.98
2024-02-14T08:06:47.025Z,66.22
2024-02-14T08:09:14.049Z,66.83
2024-02-14T08:11:41.461Z,67.07
2024-02-14T08:14:08.365Z,66.70
2024-02-14T08:16:35.224Z,66.43
2024-02-14T08:19:04.191Z,66.37
2024-02-14T08:21:32.739Z,68.81
2024-02-14T08:24:01.352Z,68.73
2024-02-14T08:26:29.545Z,67.87
2024-02-14T08:28:56.690Z,66.93
2024-02-14T08:31:23.955Z,67.57
2024-02-14T08:33:51.471Z,67.95
2024-02-14T08:36:20.906Z,68.23
2024-02-14T08:38:48.428Z,67.96
2024-02-14T08:41:15.544Z,67.61
2024-02-14T08:43:45.930Z,67.70
2024-02-14T08:46:14.610Z,68.48
2024-02-14T08:48:48.113Z,68.28
2024-02-14T08:51:16.157Z,68.11
2024-02-14T08:53:46.602Z,67.91
2024-02-14T08:56:15.132Z,66.63
2024-02-14T08:58:42.541Z,65.84
2024-02-14T09:01:14.927Z,66.63
2024-02-14T09:03:50.538Z,66.90
2024-02-14T09:06:20.041Z,65.94
2024-02-14T09:08:48.292Z,65.56
2024-02-14T09:11:15.560Z,64.99
2024-02-14T09:13:42.724Z,65.42
2024-02-14T09:16:11.112Z,64.50
2024-02-14T09:18:38.776Z,64.56
2024-02-14T09:21:07.059Z,64.02
2024-02-14T09:23:35.015Z,63.84
2024-02-14T09:26:03.260Z,64.50
2024-02-14T09:28:30.695Z,63.69
2024-02-14T09:30:57.871Z,63.29
2024-02-14T09:33:24.946Z,62.53
2024-02-14T09:35:54.089Z,62.11
2024-02-14T09:38:21.340Z,62.42
2024-02-14T09:40:48.473Z,61.93
2024-02-14T09:43:24.357Z,62.15
2024-02-14T09:45:53.504Z,62.03
2024-02-14T09:48:22.268Z,62.92
2024-02-14T09:50:50.316Z,63.03
2024-02-14T09:53:18.316Z,61.47
2024-02-14T09:55:47.443Z,61.00
2024-02-14T09:58:16.411Z,60.41
2024-02-14T10:00:51.712Z,59.74
2024-02-14T10:03:19.607Z,59.80
2024-02-14T10:05:46.538Z,61.05
2024-02-14T10:08:13.627Z,59.75
2024-02-14T10:10:40.623Z,59.30
2024-02-14T10:13:08.351Z,59.15
2024-02-14T10:15:36.764Z,60.28
2024-02-14T10:18:04.699Z,60.25
2024-02-14T10:20:33.638Z,61.38
2024-02-14T10:23:07.261Z,61.65
2024-02-14T10:25:36.203Z,60.89
2024-02-14T10:28:09.887Z,61.21
2024-02-14T10:30:39.533Z,61.68
2024-02-14T10:33:17.086Z,60.26
2024-02-14T10:35:51.933Z,61.22
2024-02-14T10:38:21.518Z,60.92
2024-02-14T10:40:49.993Z,60.41
2024-02-14T10:43:17.070Z,59.97
2024-02-14T10:45:44.252Z,58.92
2024-02-14T10:48:13.502Z,59.15
2024-02-14T10:50:42.782Z,59.37
2024-02-14T10:53:15.635Z,58.96
2024-02-14T10:55:48.819Z,59.51
2024-02-14T10:58:17.852Z,59.01
2024-02-14T11:00:47.510Z,58.47
2024-02-14T11:03:16.639Z,59.21
2024-02-14T11:05:47.800Z,59.45
2024-02-14T11:08:16.489Z,59.68
2024-02-14T11:10:43.777Z,60.07
2024-02-14T11:13:16.887Z,60.22
2024-02-14T11:15:47.970Z,59.84
2024-02-14T11:18:14.883Z,59.10
2024-02-14T11:20:43.664Z,60.85
2024-02-14T11:23:12.812Z,60.68
2024-02-14T11:25:39.906Z,61.29
2024-02-14T11:28:18.554Z,61.38
2024-02-14T11:30:45.448Z,61.02
2024-02-14T11:33:16.038Z,59.62
2024-02-14T11:35:43.792Z,59.50
2024-02-14T11:38:11.219Z,59.19
2024-02-14T11:40:42.307Z,60.60
2024-02-14T11:43:14.055Z,59.77
2024-02-14T11:45:43.296Z,60.01
2024-02-14T11:48:14.648Z,59.99
2024-02-14T11:50:44.316Z,60.03
2024-02-14T11:53:18.134Z,57.91
2024-02-14T11:55:44.903Z,58.92
2024-02-14T11:58:13.874Z,59.28
2024-02-14T12:00:42.328Z,58.83
2024-02-14T12:03:14.376Z,57.74
2024-02-14T12:05:42.848Z,56.14
2024-02-14T12:08:11.100Z,57.34
2024-02-14T12:10:41.129Z,58.47
2024-02-14T12:13:13.406Z,57.06
2024-02-14T12:15:41.408Z,56.30
2024-02-14T12:18:15.217Z,56.30
2024-02-14T12:20:45.316Z,55.20
2024-02-14T12:23:19.513Z,55.24
2024-02-14T12:25:47.887Z,57.23
2024-02-14T12:28:18.572Z,58.09
2024-02-14T12:30:59.700Z,59.49
2024-02-14T12:33:28.037Z,58.95
2024-02-14T12:35:56.479Z,59.98
2024-02-14T12:38:24.617Z,58.69
2024-02-14T12:40:54.653Z,59.13
2024-02-14T12:43:21.747Z,59.06
2024-02-14T12:45:48.947Z,58.84
2024-02-14T12:48:24.028Z,58.49
2024-02-14T12:50:52.796Z,57.94
2024-02-14T12:53:20.965Z,60.00
2024-02-14T12:55:48.347Z,59.66
2024-02-14T12:58:16.202Z,59.10
2024-02-14T13:00:44.584Z,58.58
2024-02-14T13:03:15.071Z,57.98
2024-02-14T13:05:43.425Z,56.73
2024-02-14T13:08:12.682Z,57.25
2024-02-14T13:10:39.838Z,57.58
2024-02-14T13:13:06.765Z,58.94
2024-02-14T13:15:33.729Z,59.14
2024-02-14T13:18:01.806Z,57.50
2024-02-14T13:20:29.302Z,57.66
2024-02-14T13:22:56.670Z,57.01
2024-02-14T13:25:23.421Z,56.74
2024-02-14T13:27:50.389Z,57.18
2024-02-14T13:30:17.283Z,57.77
2024-02-14T13:32:44.247Z,56.87
2024-02-14T13:35:12.714Z,55.63
2024-02-14T13:37:39.616Z,55.88
2024-02-14T13:40:11.410Z,56.26
2024-02-14T13:42:39.119Z,56.59
2024-02-14T13:45:13.241Z,56.51
2024-02-14T13:47:40.494Z,56.63
2024-02-14T13:50:10.128Z,58.31
2024-02-14T13:52:37.821Z,56.35
2024-02-14T13:55:06.631Z,55.45
2024-02-14T13:57:42.848Z,55.75
2024-02-14T14:00:10.994Z,56.52
2024-02-14T14:02:44.511Z,57.74
2024-02-14T14:05:14.841Z,57.86
2024-02-14T14:07:53.286Z,56.94
2024-02-14T14:10:26.943Z,57.21
2024-02-14T14:12:53.852Z,57.13
2024-02-14T14:15:20.862Z,57.26
2024-02-14T14:17:48.122Z,55.41
2024-02-14T14:20:15.479Z,55.82
2024-02-14T14:22:42.582Z,57.37
2024-02-14T14:25:09.988Z,58.74
2024-02-14T14:27:37.115Z,58.82
2024-02-14T14:30:05.588Z,57.66
2024-02-14T14:32:32.643Z,57.81
2024-02-14T14:34:59.548Z,57.65
2024-02-14T14:37:26.286Z,56.18
2024-02-14T14:39:53.124Z,56.26
2024-02-14T14:42:20.158Z,56.11
2024-02-14T14:44:46.908Z,57.69
2024-02-14T14:47:14.471Z,58.52
2024-02-14T14:49:43.441Z,59.16
2024-02-14T14:52:10.184Z,59.76
2024-02-14T14:54:38.093Z,60.47
2024-02-14T14:57:08.475Z,60.63
2024-02-14T14:59:36.590Z,60.20
2024-02-14T15:02:03.703Z,58.83
2024-02-14T15:04:30.699Z,59.98
2024-02-14T15:06:57.655Z,59.16
2024-02-14T15:09:24.657Z,59.51
2024-02-14T15:11:51.820Z,60.65
2024-02-14T15:14:19.252Z,60.77
2024-02-14T15:16:46.199Z,59.18
2024-02-14T15:19:13.204Z,58.93
2024-02-14T15:21:40.086Z,58.79
2024-02-14T15:24:08.100Z,59.61
2024-02-14T15:26:50.932Z,59.95
2024-02-14T15:29:38.434Z,59.47
2024-02-14T15:32:24.846Z,59.73
2024-02-14T15:34:52.390Z,60.23
2024-02-14T15:37:19.286Z,60.05
2024-02-14T15:39:46.199Z,60.01
2024-02-14T15:42:13.466Z,60.08
2024-02-14T15:44:40.967Z,60.38
2024-02-14T15:47:09.098Z,59.95
2024-02-14T15:49:36.874Z,59.85
2024-02-14T15:52:06.110Z,60.20
2024-02-14T15:54:33.018Z,60.25
2024-02-14T15:57:01.394Z,60.52
2024-02-14T15:59:28.959Z,61.03
2024-02-14T16:01:56.992Z,61.20
2024-02-14T16:04:24.710Z,61.68
2024-02-14T16:06:51.895Z,61.51
2024-02-14T16:09:18.784Z,61.29
2024-02-14T16:11:45.820Z,61.39
2024-02-14T16:14:12.812Z,61.20
2024-02-14T16:16:39.582Z,61.33
2024-02-14T16:19:07.301Z,61.14
2024-02-14T16:21:34.347Z,61.10
2024-02-14T16:24:01.191Z,61.42
2024-02-14T16:26:31.178Z,61.14
2024-02-14T16:28:58.664Z,61.27
2024-02-14T16:31:25.820Z,61.49
2024-02-14T16:33:52.950Z,61.78
2024-02-14T16:36:19.898Z,61.89
2024-02-14T16:38:46.798Z,62.60
2024-02-14T16:41:13.762Z,62.41
2024-02-14T16:43:40.427Z,62.69
2024-02-14T16:46:07.486Z,62.56
2024-02-14T16:48:34.517Z,63.03
2024-02-14T16:51:01.643Z,63.02
2024-02-14T16:53:28.501Z,63.19
2024-02-14T16:55:55.981Z,63.24
2024-02-14T16:58:23.002Z,63.23
2024-02-14T17:00:50.521Z,63.22
2024-02-14T17:03:17.819Z,63.27
2024-02-14T17:05:47.468Z,63.22
2024-02-14T17:08:14.518Z,63.75
2024-02-14T17:10:41.418Z,63.94
2024-02-14T17:13:09.035Z,64.11
2024-02-14T17:15:36.608Z,63.91
2024-02-14T17:18:06.052Z,64.25
2024-02-14T17:20:33.039Z,64.12
2024-02-14T17:23:00.013Z,64.24
2024-02-14T17:25:26.776Z,64.41
2024-02-14T17:27:53.609Z,64.62
2024-02-14T17:30:21.817Z,64.79
2024-02-14T17:32:50.009Z,64.78
2024-02-14T17:35:17.887Z,64.79
2024-02-14T17:37:44.861Z,65.28
2024-02-14T17:40:12.207Z,65.24
2024-02-14T17:42:39.856Z,65.13
2024-02-14T17:45:07.634Z,65.35
2024-02-14T17:47:35.312Z,65.17
2024-02-14T17:50:04.216Z,65.52
2024-02-14T17:52:31.239Z,65.91
2024-02-14T17:54:58.915Z,65.73
2024-02-14T17:57:26.323Z,65.42
2024-02-14T17:59:53.877Z,65.56
2024-02-14T18:02:21.486Z,65.50
2024-02-14T18:04:48.381Z,65.77
2024-02-14T18:07:15.394Z,66.03
2024-02-14T18:09:42.633Z,65.95
2024-02-14T18:12:09.902Z,65.88
2024-02-14T18:14:36.931Z,65.99
2024-02-14T18:17:04.000Z,65.74
2024-02-14T18:19:31.159Z,66.09
2024-02-14T18:21:58.236Z,65.97
2024-02-14T18:24:25.147Z,66.44
2024-02-14T18:26:51.908Z,66.93
2024-02-14T18:29:19.014Z,66.90
2024-02-14T18:31:46.172Z,67.06
2024-02-14T18:34:13.277Z,68.11
2024-02-14T18:36:40.376Z,68.08
2024-02-14T18:39:07.578Z,67.84
2024-02-14T18:41:36.115Z,67.31
2024-02-14T18:44:05.375Z,66.68
2024-02-14T18:46:33.930Z,66.44
2024-02-14T18:49:00.941Z,66.49
2024-02-14T18:51:28.018Z,66.33
2024-02-14T18:53:54.944Z,66.31
2024-02-14T18:56:22.151Z,66.24
2024-02-14T18:58:50.882Z,66.40
2024-02-14T19:01:28.854Z,66.21
2024-02-14T19:03:56.706Z,66.35
2024-02-14T19:06:32.041Z,66.48
2024-02-14T19:08:58.918Z,66.63
2024-02-14T19:11:26.210Z,66.57
2024-02-14T19:13:55.200Z,66.64
2024-02-14T19:16:28.336Z,66.76
2024-02-14T19:19:00.196Z,66.98
2024-02-14T19:21:27.183Z,66.86
2024-02-14T19:23:54.039Z,66.68
2024-02-14T19:26:22.504Z,66.73
2024-02-14T19:28:50.064Z,66.86
2024-02-14T19:31:16.994Z,66.79
2024-02-14T19:33:44.414Z,66.81
2024-02-14T19:36:11.383Z,66.80
2024-02-14T19:38:38.745Z,66.80
2024-02-14T19:41:05.903Z,66.88
2024-02-14T19:43:39.185Z,66.71
2024-02-14T19:46:07.388Z,66.55
2024-02-14T19:48:36.459Z,66.63
2024-02-14T19:51:04.721Z,66.82
2024-02-14T19:53:33.391Z,66.99
2024-02-14T19:56:00.471Z,66.79
2024-02-14T19:58:28.150Z,66.61
2024-02-14T20:00:55.363Z,66.71
2024-02-14T20:03:22.570Z,66.55
2024-02-14T20:05:49.744Z,66.79
2024-02-14T20:08:16.844Z,66.82
2024-02-14T20:10:44.001Z,66.94
2024-02-14T20:13:11.140Z,66.96
2024-02-14T20:15:38.464Z,66.95
2024-02-14T20:18:05.967Z,66.84
2024-02-14T20:20:33.030Z,66.73
2024-02-14T20:23:00.059Z,66.92
2024-02-14T20:25:27.204Z,67.01
2024-02-14T20:27:55.321Z,66.94
2024-02-14T20:30:22.515Z,66.95
2024-02-14T20:32:49.671Z,67.01
2024-02-14T20:35:16.991Z,67.09
2024-02-14T20:37:44.717Z,67.07
2024-02-14T20:40:14.720Z,66.90
2024-02-14T20:42:46.181Z,67.19
2024-02-14T20:45:14.146Z,67.01
2024-02-14T20:47:44.161Z,66.88
2024-02-14T20:50:11.046Z,66.86
2024-02-14T20:52:38.844Z,67.00
2024-02-14T20:55:06.316Z,67.09
2024-02-14T20:57:34.501Z,66.87
2024-02-14T21:00:02.134Z,67.03
2024-02-14T21:02:29.152Z,67.00
2024-02-14T21:04:56.374Z,67.06
2024-02-14T21:07:23.662Z,66.97
2024-02-14T21:09:50.416Z,67.20
2024-02-14T21:12:19.141Z,67.07
2024-02-14T21:14:45.897Z,67.49
2024-02-14T21:17:13.108Z,67.28
2024-02-14T21:19:39.964Z,67.22
2024-02-14T21:22:07.267Z,67.32
2024-02-14T21:24:33.965Z,67.39
2024-02-14T21:27:00.706Z,67.17
2024-02-14T21:29:27.883Z,67.24
2024-02-14T21:31:55.013Z,67.23
2024-02-14T21:34:22.153Z,67.14
2024-02-14T21:36:49.194Z,67.30
2024-02-14T21:39:18.920Z,67.23
2024-02-14T21:41:47.432Z,67.37
2024-02-14T21:44:14.698Z,67.36
2024-02-14T21:46:43.526Z,67.48
2024-02-14T21:49:15.782Z,67.38
2024-02-14T21:51:42.859Z,67.47
2024-02-14T21:54:09.705Z,67.54
2024-02-14T21:56:36.516Z,67.35
2024-02-14T21:59:03.769Z,67.54
2024-02-14T22:01:30.630Z,67.64
2024-02-14T22:03:57.371Z,67.24
2024-02-14T22:06:24.292Z,67.26
2024-02-14T22:26:02.350Z,65.59
2024-02-14T22:28:35.847Z,65.74
2024-02-14T22:31:03.761Z,65.75
2024-02-14T22:33:31.101Z,65.95
2024-02-14T22:35:58.264Z,65.93
2024-02-14T22:38:25.401Z,65.81
2024-02-14T22:40:52.372Z,66.27
2024-02-14T22:43:19.277Z,65.96
2024-02-14T22:45:46.295Z,66.32
2024-02-14T22:48:14.209Z,66.26
2024-02-14T22:50:41.125Z,66.67
2024-02-14T22:53:08.979Z,66.54
2024-02-14T22:55:36.135Z,66.28
2024-02-14T22:58:04.937Z,66.27
2024-02-14T23:00:34.947Z,66.66
2024-02-14T23:03:07.409Z,66.51
2024-02-14T23:05:35.996Z,66.47
2024-02-14T23:08:03.520Z,66.31
2024-02-14T23:10:30.745Z,66.10
2024-02-14T23:12:57.431Z,65.70
2024-02-14T23:15:24.439Z,65.38
2024-02-14T23:17:52.143Z,65.09
2024-02-14T23:20:19.575Z,65.57
2024-02-14T23:22:46.430Z,65.72
2024-02-14T23:25:13.359Z,65.96
2024-02-14T23:27:44.052Z,66.17
2024-02-14T23:30:11.607Z,65.99
2024-02-14T23:32:40.519Z,65.73
2024-02-14T23:35:11.489Z,65.75
2024-02-14T23:37:41.886Z,65.53
2024-02-14T23:40:12.060Z,65.05
2024-02-14T23:42:46.296Z,64.95
2024-02-14T23:45:13.098Z,65.27
2024-02-14T23:47:40.714Z,65.59
2024-02-14T23:50:12.005Z,65.34
2024-02-14T23:52:40.054Z,65.99
2024-02-14T23:55:07.091Z,65.69
2024-02-14T23:57:34.699Z,65.67
